sensor_id;sensor_type;location;lat;lon;timestamp;pressure;altitude;pressure_sealevel;temperature;humidity
11444;BME280;5778;47.856;12.154;2023-02-18T00:02:34;97186.16;;;13.17;100.00
11444;BME280;5778;47.856;12.154;2023-02-18T00:05:03;97178.63;;;13.14;100.00
11444;BME280;5778;47.856;12.154;2023-02-18T00:07:33;97171.91;;;13.12;100.00
11444;BME280;5778;47.856;12.154;2023-02-18T00:10:01;97195.88;;;13.07;100.00
11444;BME280;5778;47.856;12.154;2023-02-18T00:12:30;97179.63;;;13.08;100.00
11444;BME280;5778;47.856;12.154;2023-02-18T00:14:58;97178.50;;;13.04;100.00
11444;BME280;5778;47.856;12.154;2023-02-18T00:17:25;97178.84;;;13.08;100.00
11444;BME280;5778;47.856;12.154;2023-02-18T00:19:52;97161.75;;;13.09;100.00
11444;BME280;5778;47.856;12.154;2023-02-18T00:22:23;97177.78;;;13.09;100.00
11444;BME280;5778;47.856;12.154;2023-02-18T00:24:51;97186.50;;;13.04;100.00
11444;BME280;5778;47.856;12.154;2023-02-18T00:27:20;97174.72;;;13.00;100.00
11444;BME280;5778;47.856;12.154;2023-02-18T00:29:47;97179.38;;;12.93;100.00
11444;BME280;5778;47.856;12.154;2023-02-18T00:32:15;97177.53;;;12.94;100.00
11444;BME280;5778;47.856;12.154;2023-02-18T00:34:42;97174.31;;;12.92;100.00
11444;BME280;5778;47.856;12.154;2023-02-18T00:37:09;97178.59;;;12.93;100.00
11444;BME280;5778;47.856;12.154;2023-02-18T00:39:39;97174.41;;;12.97;100.00
11444;BME280;5778;47.856;12.154;2023-02-18T00:42:07;97168.63;;;13.05;100.00
11444;BME280;5778;47.856;12.154;2023-02-18T00:44:34;97179.81;;;13.02;100.00
11444;BME280;5778;47.856;12.154;2023-02-18T00:47:02;97162.16;;;13.01;100.00
11444;BME280;5778;47.856;12.154;2023-02-18T00:49:29;97159.50;;;13.01;100.00
11444;BME280;5778;47.856;12.154;2023-02-18T00:51:57;97170.69;;;12.98;100.00
11444;BME280;5778;47.856;12.154;2023-02-18T00:54:25;97157.88;;;13.00;100.00
11444;BME280;5778;47.856;12.154;2023-02-18T00:56:54;97157.41;;;13.03;100.00
11444;BME280;5778;47.856;12.154;2023-02-18T00:59:22;97154.22;;;13.06;100.00
11444;BME280;5778;47.856;12.154;2023-02-18T01:01:49;97154.22;;;13.06;100.00
11444;BME280;5778;47.856;12.154;2023-02-18T01:04:18;97152.06;;;13.03;100.00
11444;BME280;5778;47.856;12.154;2023-02-18T01:06:47;97151.47;;;13.01;100.00
11444;BME280;5778;47.856;12.154;2023-02-18T01:09:14;97161.69;;;13.04;100.00
11444;BME280;5778;47.856;12.154;2023-02-18T01:11:43;97152.91;;;13.08;100.00
11444;BME280;5778;47.856;12.154;2023-02-18T01:14:13;97147.81;;;13.07;100.00
11444;BME280;5778;47.856;12.154;2023-02-18T01:16:41;97157.94;;;13.05;100.00
11444;BME280;5778;47.856;12.154;2023-02-18T01:19:08;97145.91;;;13.02;100.00
11444;BME280;5778;47.856;12.154;2023-02-18T01:21:37;97136.34;;;13.06;100.00
11444;BME280;5778;47.856;12.154;2023-02-18T01:24:05;97154.16;;;13.01;100.00
11444;BME280;5778;47.856;12.154;2023-02-18T01:26:34;97151.75;;;12.99;100.00
11444;BME280;5778;47.856;12.154;2023-02-18T01:29:01;97150.09;;;12.98;100.00
11444;BME280;5778;47.856;12.154;2023-02-18T01:31:32;97145.91;;;13.02;100.00
11444;BME280;5778;47.856;12.154;2023-02-18T01:33:59;97153.34;;;13.00;100.00
11444;BME280;5778;47.856;12.154;2023-02-18T01:36:28;97144.78;;;12.98;100.00
11444;BME280;5778;47.856;12.154;2023-02-18T01:38:55;97143.56;;;12.89;100.00
11444;BME280;5778;47.856;12.154;2023-02-18T01:41:23;97144.66;;;12.93;100.00
11444;BME280;5778;47.856;12.154;2023-02-18T01:44:12;97136.34;;;12.90;100.00
11444;BME280;5778;47.856;12.154;2023-02-18T01:46:41;97145.34;;;12.84;100.00
11444;BME280;5778;47.856;12.154;2023-02-18T01:49:09;97140.00;;;12.84;100.00
11444;BME280;5778;47.856;12.154;2023-02-18T01:51:40;97141.22;;;12.76;100.00
11444;BME280;5778;47.856;12.154;2023-02-18T01:54:12;97137.69;;;12.71;100.00
11444;BME280;5778;47.856;12.154;2023-02-18T01:56:45;97138.69;;;12.65;100.00
11444;BME280;5778;47.856;12.154;2023-02-18T01:59:18;97133.34;;;12.65;100.00
11444;BME280;5778;47.856;12.154;2023-02-18T02:01:50;97130.44;;;12.66;100.00
11444;BME280;5778;47.856;12.154;2023-02-18T02:04:18;97123.66;;;12.59;100.00
11444;BME280;5778;47.856;12.154;2023-02-18T02:06:45;97118.78;;;12.56;100.00
11444;BME280;5778;47.856;12.154;2023-02-18T02:09:15;97111.13;;;12.43;100.00
11444;BME280;5778;47.856;12.154;2023-02-18T02:14:49;97107.69;;;12.26;100.00
11444;BME280;5778;47.856;12.154;2023-02-18T02:17:31;97105.41;;;12.18;100.00
11444;BME280;5778;47.856;12.154;2023-02-18T02:26:39;97104.53;;;12.12;100.00
11444;BME280;5778;47.856;12.154;2023-02-18T02:29:38;97101.69;;;12.19;100.00
11444;BME280;5778;47.856;12.154;2023-02-18T02:32:34;97100.72;;;12.08;100.00
11444;BME280;5778;47.856;12.154;2023-02-18T02:35:10;97108.31;;;12.16;100.00
11444;BME280;5778;47.856;12.154;2023-02-18T02:37:46;97099.09;;;12.07;100.00
11444;BME280;5778;47.856;12.154;2023-02-18T02:40:21;97103.16;;;12.10;100.00
11444;BME280;5778;47.856;12.154;2023-02-18T02:42:58;97095.47;;;12.13;100.00
11444;BME280;5778;47.856;12.154;2023-02-18T02:45:40;97097.41;;;12.18;100.00
11444;BME280;5778;47.856;12.154;2023-02-18T02:48:15;97090.13;;;12.13;100.00
11444;BME280;5778;47.856;12.154;2023-02-18T02:50:49;97085.69;;;12.19;100.00
11444;BME280;5778;47.856;12.154;2023-02-18T02:53:22;97088.44;;;12.07;100.00
11444;BME280;5778;47.856;12.154;2023-02-18T02:55:50;97096.75;;;12.11;100.00
11444;BME280;5778;47.856;12.154;2023-02-18T02:58:19;97089.22;;;12.08;100.00
11444;BME280;5778;47.856;12.154;2023-02-18T03:01:05;97089.72;;;12.05;100.00
11444;BME280;5778;47.856;12.154;2023-02-18T03:06:54;97095.94;;;11.94;100.00
11444;BME280;5778;47.856;12.154;2023-02-18T03:09:32;97084.22;;;11.95;100.00
11444;BME280;5778;47.856;12.154;2023-02-18T03:12:10;97085.28;;;11.94;100.00
11444;BME280;5778;47.856;12.154;2023-02-18T03:14:45;97094.06;;;11.94;100.00
11444;BME280;5778;47.856;12.154;2023-02-18T03:17:23;97103.13;;;11.93;100.00
11444;BME280;5778;47.856;12.154;2023-02-18T03:19:54;97100.97;;;11.90;100.00
11444;BME280;5778;47.856;12.154;2023-02-18T03:22:33;97101.34;;;11.82;100.00
11444;BME280;5778;47.856;12.154;2023-02-18T03:25:05;97103.91;;;11.77;100.00
11444;BME280;5778;47.856;12.154;2023-02-18T03:27:35;97096.16;;;11.76;100.00
11444;BME280;5778;47.856;12.154;2023-02-18T03:30:10;97092.28;;;11.67;100.00
11444;BME280;5778;47.856;12.154;2023-02-18T03:32:40;97088.91;;;11.32;100.00
11444;BME280;5778;47.856;12.154;2023-02-18T03:35:12;97079.97;;;11.10;100.00
11444;BME280;5778;47.856;12.154;2023-02-18T03:37:47;97090.59;;;10.82;100.00
11444;BME280;5778;47.856;12.154;2023-02-18T03:40:16;97085.63;;;10.74;100.00
11444;BME280;5778;47.856;12.154;2023-02-18T03:42:44;97083.81;;;10.63;100.00
11444;BME280;5778;47.856;12.154;2023-02-18T03:45:12;97084.94;;;10.67;100.00
11444;BME280;5778;47.856;12.154;2023-02-18T03:47:40;97085.09;;;10.60;100.00
11444;BME280;5778;47.856;12.154;2023-02-18T03:50:08;97085.56;;;10.46;100.00
11444;BME280;5778;47.856;12.154;2023-02-18T03:52:35;97094.25;;;10.30;100.00
11444;BME280;5778;47.856;12.154;2023-02-18T03:55:09;97093.88;;;10.26;100.00
11444;BME280;5778;47.856;12.154;2023-02-18T03:57:37;97087.28;;;10.06;100.00
11444;BME280;5778;47.856;12.154;2023-02-18T04:00:05;97093.47;;;10.00;100.00
11444;BME280;5778;47.856;12.154;2023-02-18T04:02:40;97088.38;;;9.87;100.00
11444;BME280;5778;47.856;12.154;2023-02-18T04:05:07;97090.53;;;9.67;100.00
11444;BME280;5778;47.856;12.154;2023-02-18T04:07:34;97086.91;;;9.50;100.00
11444;BME280;5778;47.856;12.154;2023-02-18T04:10:02;97087.34;;;9.47;100.00
11444;BME280;5778;47.856;12.154;2023-02-18T04:12:34;97089.97;;;9.35;100.00
11444;BME280;5778;47.856;12.154;2023-02-18T04:15:01;97089.78;;;9.19;100.00
11444;BME280;5778;47.856;12.154;2023-02-18T04:17:31;97096.44;;;9.10;100.00
11444;BME280;5778;47.856;12.154;2023-02-18T04:19:58;97088.78;;;9.02;100.00
11444;BME280;5778;47.856;12.154;2023-02-18T04:22:26;97094.16;;;8.95;100.00
11444;BME280;5778;47.856;12.154;2023-02-18T04:24:53;97085.63;;;8.93;100.00
11444;BME280;5778;47.856;12.154;2023-02-18T04:27:20;97079.25;;;8.83;100.00
11444;BME280;5778;47.856;12.154;2023-02-18T04:29:50;97087.84;;;8.78;100.00
11444;BME280;5778;47.856;12.154;2023-02-18T04:32:18;97092.72;;;8.81;100.00
11444;BME280;5778;47.856;12.154;2023-02-18T04:34:45;97091.47;;;8.84;100.00
11444;BME280;5778;47.856;12.154;2023-02-18T04:37:12;97091.25;;;8.85;100.00
11444;BME280;5778;47.856;12.154;2023-02-18T04:39:40;97087.63;;;8.80;100.00
11444;BME280;5778;47.856;12.154;2023-02-18T04:42:07;97097.50;;;8.73;100.00
11444;BME280;5778;47.856;12.154;2023-02-18T04:44:35;97097.88;;;8.76;100.00
11444;BME280;5778;47.856;12.154;2023-02-18T04:47:04;97098.81;;;8.64;100.00
11444;BME280;5778;47.856;12.154;2023-02-18T04:49:32;97101.53;;;8.57;100.00
11444;BME280;5778;47.856;12.154;2023-02-18T04:52:00;97102.78;;;8.55;100.00
11444;BME280;5778;47.856;12.154;2023-02-18T04:54:28;97097.72;;;8.53;100.00
11444;BME280;5778;47.856;12.154;2023-02-18T04:56:55;97096.31;;;8.51;100.00
11444;BME280;5778;47.856;12.154;2023-02-18T04:59:23;97097.94;;;8.52;100.00
11444;BME280;5778;47.856;12.154;2023-02-18T05:01:50;97107.34;;;8.48;100.00
11444;BME280;5778;47.856;12.154;2023-02-18T05:04:22;97105.63;;;8.35;100.00
11444;BME280;5778;47.856;12.154;2023-02-18T05:06:49;97104.09;;;8.28;100.00
11444;BME280;5778;47.856;12.154;2023-02-18T05:09:16;97100.34;;;8.11;100.00
11444;BME280;5778;47.856;12.154;2023-02-18T05:11:44;97094.28;;;8.04;100.00
11444;BME280;5778;47.856;12.154;2023-02-18T05:14:12;97095.03;;;7.86;100.00
11444;BME280;5778;47.856;12.154;2023-02-18T05:16:39;97103.06;;;7.80;100.00
11444;BME280;5778;47.856;12.154;2023-02-18T05:19:07;97097.09;;;7.84;100.00
11444;BME280;5778;47.856;12.154;2023-02-18T05:21:35;97098.63;;;7.74;100.00
11444;BME280;5778;47.856;12.154;2023-02-18T05:24:03;97100.00;;;7.52;100.00
11444;BME280;5778;47.856;12.154;2023-02-18T05:26:31;97096.75;;;7.50;100.00
11444;BME280;5778;47.856;12.154;2023-02-18T05:28:58;97106.97;;;7.40;100.00
11444;BME280;5778;47.856;12.154;2023-02-18T05:31:26;97112.72;;;7.37;100.00
11444;BME280;5778;47.856;12.154;2023-02-18T05:33:53;97106.47;;;7.25;100.00
11444;BME280;5778;47.856;12.154;2023-02-18T05:36:20;97111.13;;;7.29;100.00
11444;BME280;5778;47.856;12.154;2023-02-18T05:38:48;97113.00;;;7.22;100.00
11444;BME280;5778;47.856;12.154;2023-02-18T05:41:16;97099.78;;;7.22;100.00
11444;BME280;5778;47.856;12.154;2023-02-18T05:43:43;97104.50;;;7.14;100.00
11444;BME280;5778;47.856;12.154;2023-02-18T05:46:28;97105.13;;;7.09;100.00
11444;BME280;5778;47.856;12.154;2023-02-18T05:48:55;97105.31;;;7.08;100.00
11444;BME280;5778;47.856;12.154;2023-02-18T05:51:22;97115.50;;;7.11;100.00
11444;BME280;5778;47.856;12.154;2023-02-18T05:53:50;97108.38;;;7.11;100.00
11444;BME280;5778;47.856;12.154;2023-02-18T05:56:18;97107.56;;;7.11;100.00
11444;BME280;5778;47.856;12.154;2023-02-18T05:58:45;97111.22;;;7.10;100.00
11444;BME280;5778;47.856;12.154;2023-02-18T06:01:12;97110.22;;;7.04;100.00
11444;BME280;5778;47.856;12.154;2023-02-18T06:03:40;97108.38;;;7.11;100.00
11444;BME280;5778;47.856;12.154;2023-02-18T06:06:07;97111.03;;;7.05;100.00
11444;BME280;5778;47.856;12.154;2023-02-18T06:08:34;97101.25;;;7.12;100.00
11444;BME280;5778;47.856;12.154;2023-02-18T06:11:04;97103.94;;;7.36;100.00
11444;BME280;5778;47.856;12.154;2023-02-18T06:13:32;97105.56;;;7.37;100.00
11444;BME280;5778;47.856;12.154;2023-02-18T06:15:59;97103.38;;;7.34;100.00
11444;BME280;5778;47.856;12.154;2023-02-18T06:18:26;97098.06;;;7.34;100.00
11444;BME280;5778;47.856;12.154;2023-02-18T06:20:54;97107.44;;;7.37;100.00
11444;BME280;5778;47.856;12.154;2023-02-18T06:23:22;97101.66;;;7.46;100.00
11444;BME280;5778;47.856;12.154;2023-02-18T06:25:50;97104.88;;;7.48;100.00
11444;BME280;5778;47.856;12.154;2023-02-18T06:28:18;97097.28;;;7.58;100.00
11444;BME280;5778;47.856;12.154;2023-02-18T06:30:46;97101.56;;;7.59;100.00
11444;BME280;5778;47.856;12.154;2023-02-18T06:33:14;97102.75;;;7.63;100.00
11444;BME280;5778;47.856;12.154;2023-02-18T06:35:41;97109.63;;;7.71;100.00
11444;BME280;5778;47.856;12.154;2023-02-18T06:38:08;97103.06;;;7.80;100.00
11444;BME280;5778;47.856;12.154;2023-02-18T06:40:35;97104.41;;;7.89;100.00
11444;BME280;5778;47.856;12.154;2023-02-18T06:43:02;97108.44;;;7.91;100.00
11444;BME280;5778;47.856;12.154;2023-02-18T06:45:31;97106.78;;;7.97;100.00
11444;BME280;5778;47.856;12.154;2023-02-18T06:47:58;97107.53;;;8.04;100.00
11444;BME280;5778;47.856;12.154;2023-02-18T06:50:26;97106.28;;;8.06;100.00
11444;BME280;5778;47.856;12.154;2023-02-18T06:52:53;97106.47;;;8.11;100.00
11444;BME280;5778;47.856;12.154;2023-02-18T06:55:21;97106.25;;;8.13;100.00
11444;BME280;5778;47.856;12.154;2023-02-18T06:57:49;97108.44;;;8.16;100.00
11444;BME280;5778;47.856;12.154;2023-02-18T07:00:16;97110.88;;;8.24;100.00
11444;BME280;5778;47.856;12.154;2023-02-18T07:02:46;97105.56;;;8.24;100.00
11444;BME280;5778;47.856;12.154;2023-02-18T07:05:14;97107.75;;;8.27;100.00
11444;BME280;5778;47.856;12.154;2023-02-18T07:07:42;97106.31;;;8.31;100.00
11444;BME280;5778;47.856;12.154;2023-02-18T07:10:10;97111.97;;;8.34;100.00
11444;BME280;5778;47.856;12.154;2023-02-18T07:12:38;97116.25;;;8.35;100.00
11444;BME280;5778;47.856;12.154;2023-02-18T07:15:05;97118.09;;;8.35;100.00
11444;BME280;5778;47.856;12.154;2023-02-18T07:17:32;97119.72;;;8.36;100.00
11444;BME280;5778;47.856;12.154;2023-02-18T07:20:00;97118.09;;;8.35;100.00
11444;BME280;5778;47.856;12.154;2023-02-18T07:22:35;97116.84;;;8.37;100.00
11444;BME280;5778;47.856;12.154;2023-02-18T07:25:04;97114.78;;;8.39;100.00
11444;BME280;5778;47.856;12.154;2023-02-18T07:27:31;97120.06;;;8.39;100.00
11444;BME280;5778;47.856;12.154;2023-02-18T07:29:58;97110.47;;;8.45;100.00
11444;BME280;5778;47.856;12.154;2023-02-18T07:32:25;97108.75;;;8.50;100.00
11444;BME280;5778;47.856;12.154;2023-02-18T07:34:52;97109.44;;;8.46;100.00
11444;BME280;5778;47.856;12.154;2023-02-18T07:37:22;97107.50;;;8.53;100.00
11444;BME280;5778;47.856;12.154;2023-02-18T07:39:49;97102.00;;;8.54;100.00
11444;BME280;5778;47.856;12.154;2023-02-18T07:42:16;97103.19;;;8.58;100.00
11444;BME280;5778;47.856;12.154;2023-02-18T07:44:43;97102.94;;;8.60;100.00
11444;BME280;5778;47.856;12.154;2023-02-18T07:47:13;97100.97;;;8.55;100.00
11444;BME280;5778;47.856;12.154;2023-02-18T07:49:40;97096.63;;;8.61;100.00
11444;BME280;5778;47.856;12.154;2023-02-18T07:52:07;97094.09;;;8.66;100.00
11444;BME280;5778;47.856;12.154;2023-02-18T07:54:41;97095.44;;;8.75;100.00
11444;BME280;5778;47.856;12.154;2023-02-18T07:57:08;97099.28;;;8.79;100.00
11444;BME280;5778;47.856;12.154;2023-02-18T07:59:35;97101.25;;;8.83;100.00
11444;BME280;5778;47.856;12.154;2023-02-18T08:02:02;97106.16;;;8.98;100.00
11444;BME280;5778;47.856;12.154;2023-02-18T08:04:49;97105.22;;;8.92;100.00
11444;BME280;5778;47.856;12.154;2023-02-18T08:07:17;97094.41;;;8.94;100.00
11444;BME280;5778;47.856;12.154;2023-02-18T08:09:47;97097.56;;;9.02;100.00
11444;BME280;5778;47.856;12.154;2023-02-18T08:12:15;97091.56;;;9.07;100.00
11444;BME280;5778;47.856;12.154;2023-02-18T08:14:43;97092.75;;;9.11;100.00
11444;BME280;5778;47.856;12.154;2023-02-18T08:17:10;97096.97;;;9.30;100.00
11444;BME280;5778;47.856;12.154;2023-02-18T08:19:37;97090.81;;;9.47;100.00
11444;BME280;5778;47.856;12.154;2023-02-18T08:22:05;97097.66;;;9.55;100.00
11444;BME280;5778;47.856;12.154;2023-02-18T08:24:34;97095.94;;;9.60;100.00
11444;BME280;5778;47.856;12.154;2023-02-18T08:27:03;97099.53;;;9.77;100.00
11444;BME280;5778;47.856;12.154;2023-02-18T08:29:30;97083.16;;;9.80;100.00
11444;BME280;5778;47.856;12.154;2023-02-18T08:31:57;97083.19;;;9.92;100.00
11444;BME280;5778;47.856;12.154;2023-02-18T08:34:35;97087.72;;;10.03;100.00
11444;BME280;5778;47.856;12.154;2023-02-18T08:37:03;97073.41;;;10.15;100.00
11444;BME280;5778;47.856;12.154;2023-02-18T08:39:33;97069.50;;;10.29;100.00
11444;BME280;5778;47.856;12.154;2023-02-18T08:42:00;97060.69;;;10.40;100.00
11444;BME280;5778;47.856;12.154;2023-02-18T08:45:07;97057.09;;;10.58;100.00
11444;BME280;5778;47.856;12.154;2023-02-18T08:47:34;97056.72;;;10.66;100.00
11444;BME280;5778;47.856;12.154;2023-02-18T08:50:03;97047.91;;;10.77;100.00
11444;BME280;5778;47.856;12.154;2023-02-18T08:52:36;97050.44;;;10.95;100.00
11444;BME280;5778;47.856;12.154;2023-02-18T08:55:03;97041.00;;;11.04;100.00
11444;BME280;5778;47.856;12.154;2023-02-18T08:57:32;97045.00;;;11.18;100.00
11444;BME280;5778;47.856;12.154;2023-02-18T08:59:59;97046.00;;;11.28;100.00
11444;BME280;5778;47.856;12.154;2023-02-18T09:02:41;97047.41;;;11.47;100.00
11444;BME280;5778;47.856;12.154;2023-02-18T09:05:14;97037.97;;;11.56;100.00
11444;BME280;5778;47.856;12.154;2023-02-18T09:07:46;97031.06;;;11.88;100.00
11444;BME280;5778;47.856;12.154;2023-02-18T09:10:13;97042.63;;;12.10;100.00
11444;BME280;5778;47.856;12.154;2023-02-18T09:12:59;97021.59;;;12.52;100.00
11444;BME280;5778;47.856;12.154;2023-02-18T09:15:27;97016.91;;;12.80;100.00
11444;BME280;5778;47.856;12.154;2023-02-18T09:17:58;97014.00;;;13.03;100.00
11444;BME280;5778;47.856;12.154;2023-02-18T09:20:26;97003.34;;;13.30;100.00
11444;BME280;5778;47.856;12.154;2023-02-18T09:23:06;97007.09;;;13.34;100.00
11444;BME280;5778;47.856;12.154;2023-02-18T09:25:33;96996.66;;;13.59;100.00
11444;BME280;5778;47.856;12.154;2023-02-18T09:28:00;96994.88;;;13.38;100.00
11444;BME280;5778;47.856;12.154;2023-02-18T09:30:28;97000.16;;;13.33;100.00
11444;BME280;5778;47.856;12.154;2023-02-18T09:33:26;97007.88;;;13.29;100.00
11444;BME280;5778;47.856;12.154;2023-02-18T09:35:57;96995.19;;;13.15;100.00
11444;BME280;5778;47.856;12.154;2023-02-18T09:38:24;96996.91;;;13.26;100.00
11444;BME280;5778;47.856;12.154;2023-02-18T09:40:52;96988.47;;;13.39;100.00
11444;BME280;5778;47.856;12.154;2023-02-18T09:43:50;96985.72;;;13.60;100.00
11444;BME280;5778;47.856;12.154;2023-02-18T09:46:23;96978.19;;;13.84;100.00
11444;BME280;5778;47.856;12.154;2023-02-18T09:49:15;96975.22;;;13.85;100.00
11444;BME280;5778;47.856;12.154;2023-02-18T09:51:45;96965.75;;;14.04;100.00
11444;BME280;5778;47.856;12.154;2023-02-18T09:54:41;96973.44;;;14.32;100.00
11444;BME280;5778;47.856;12.154;2023-02-18T09:57:17;96977.50;;;14.03;100.00
11444;BME280;5778;47.856;12.154;2023-02-18T09:59:56;96968.47;;;14.09;100.00
11444;BME280;5778;47.856;12.154;2023-02-18T10:02:33;96969.28;;;14.15;100.00
11444;BME280;5778;47.856;12.154;2023-02-18T10:05:13;96960.81;;;14.23;100.00
11444;BME280;5778;47.856;12.154;2023-02-18T10:07:41;96955.00;;;14.36;100.00
11444;BME280;5778;47.856;12.154;2023-02-18T10:10:18;96951.78;;;14.34;100.00
11444;BME280;5778;47.856;12.154;2023-02-18T10:12:53;96940.06;;;14.50;100.00
11444;BME280;5778;47.856;12.154;2023-02-18T10:15:23;96932.06;;;14.50;100.00
11444;BME280;5778;47.856;12.154;2023-02-18T10:17:55;96923.53;;;14.63;100.00
11444;BME280;5778;47.856;12.154;2023-02-18T10:20:26;96935.91;;;14.84;100.00
11444;BME280;5778;47.856;12.154;2023-02-18T10:22:59;96918.72;;;14.60;100.00
11444;BME280;5778;47.856;12.154;2023-02-18T10:25:30;96916.59;;;14.72;100.00
11444;BME280;5778;47.856;12.154;2023-02-18T10:27:59;96910.81;;;15.15;100.00
11444;BME280;5778;47.856;12.154;2023-02-18T10:30:31;96892.28;;;14.93;100.00
11444;BME280;5778;47.856;12.154;2023-02-18T10:33:20;96896.06;;;15.32;100.00
11444;BME280;5778;47.856;12.154;2023-02-18T10:36:05;96906.28;;;15.65;100.00
11444;BME280;5778;47.856;12.154;2023-02-18T10:38:41;96897.44;;;15.60;100.00
11444;BME280;5778;47.856;12.154;2023-02-18T10:41:17;96885.13;;;15.69;100.00
11444;BME280;5778;47.856;12.154;2023-02-18T10:47:00;96865.50;;;15.88;100.00
11444;BME280;5778;47.856;12.154;2023-02-18T10:49:52;96873.31;;;15.75;100.00
11444;BME280;5778;47.856;12.154;2023-02-18T10:52:49;96859.81;;;15.95;100.00
11444;BME280;5778;47.856;12.154;2023-02-18T10:55:18;96864.34;;;16.14;100.00
11444;BME280;5778;47.856;12.154;2023-02-18T10:57:49;96856.00;;;16.21;98.69
11444;BME280;5778;47.856;12.154;2023-02-18T11:00:20;96855.34;;;16.54;98.27
11444;BME280;5778;47.856;12.154;2023-02-18T11:03:02;96848.28;;;16.73;90.46
11444;BME280;5778;47.856;12.154;2023-02-18T11:05:36;96829.47;;;16.73;92.65
11444;BME280;5778;47.856;12.154;2023-02-18T11:08:10;96838.03;;;16.80;88.40
11444;BME280;5778;47.856;12.154;2023-02-18T11:10:42;96823.50;;;16.27;91.84
11444;BME280;5778;47.856;12.154;2023-02-18T11:13:13;96822.16;;;16.30;96.27
11444;BME280;5778;47.856;12.154;2023-02-18T11:15:54;96812.75;;;16.32;100.00
11444;BME280;5778;47.856;12.154;2023-02-18T11:18:35;96799.13;;;16.19;100.00
11444;BME280;5778;47.856;12.154;2023-02-18T11:21:25;96802.56;;;16.24;100.00
11444;BME280;5778;47.856;12.154;2023-02-18T11:24:14;96791.56;;;16.26;100.00
11444;BME280;5778;47.856;12.154;2023-02-18T11:26:42;96782.19;;;16.72;100.00
11444;BME280;5778;47.856;12.154;2023-02-18T11:29:14;96774.97;;;16.19;100.00
11444;BME280;5778;47.856;12.154;2023-02-18T11:31:46;96768.22;;;16.75;100.00
11444;BME280;5778;47.856;12.154;2023-02-18T11:34:18;96763.97;;;17.02;94.85
11444;BME280;5778;47.856;12.154;2023-02-18T11:36:46;96750.13;;;17.19;92.86
11444;BME280;5778;47.856;12.154;2023-02-18T11:39:20;96755.09;;;17.59;93.83
11444;BME280;5778;47.856;12.154;2023-02-18T11:41:55;96736.88;;;17.56;81.00
11444;BME280;5778;47.856;12.154;2023-02-18T11:44:27;96735.50;;;17.82;80.48
11444;BME280;5778;47.856;12.154;2023-02-18T11:46:57;96731.88;;;17.91;76.86
11444;BME280;5778;47.856;12.154;2023-02-18T11:49:24;96736.84;;;18.03;77.93
11444;BME280;5778;47.856;12.154;2023-02-18T11:51:51;96729.91;;;17.97;74.44
11444;BME280;5778;47.856;12.154;2023-02-18T11:54:26;96741.09;;;17.62;74.24
11444;BME280;5778;47.856;12.154;2023-02-18T11:56:59;96720.50;;;17.76;73.94
11444;BME280;5778;47.856;12.154;2023-02-18T11:59:29;96721.47;;;17.61;73.78
11444;BME280;5778;47.856;12.154;2023-02-18T12:02:02;96714.25;;;17.80;72.63
11444;BME280;5778;47.856;12.154;2023-02-18T12:04:39;96711.28;;;17.82;72.25
11444;BME280;5778;47.856;12.154;2023-02-18T12:07:16;96711.72;;;17.89;72.18
11444;BME280;5778;47.856;12.154;2023-02-18T12:09:48;96710.53;;;18.18;68.02
11444;BME280;5778;47.856;12.154;2023-02-18T12:12:19;96700.84;;;17.99;69.45
11444;BME280;5778;47.856;12.154;2023-02-18T12:15:13;96703.63;;;18.31;66.45
11444;BME280;5778;47.856;12.154;2023-02-18T12:17:54;96701.44;;;17.72;74.30
11444;BME280;5778;47.856;12.154;2023-02-18T12:20:41;96705.69;;;17.26;73.37
11444;BME280;5778;47.856;12.154;2023-02-18T12:23:18;96695.44;;;17.28;76.12
11444;BME280;5778;47.856;12.154;2023-02-18T12:25:56;96693.72;;;17.14;76.88
11444;BME280;5778;47.856;12.154;2023-02-18T12:28:41;96687.03;;;17.40;73.33
11444;BME280;5778;47.856;12.154;2023-02-18T12:31:37;96673.03;;;17.43;75.07
11444;BME280;5778;47.856;12.154;2023-02-18T12:34:24;96668.78;;;17.32;73.03
11444;BME280;5778;47.856;12.154;2023-02-18T12:37:03;96659.50;;;17.48;74.20
11444;BME280;5778;47.856;12.154;2023-02-18T12:39:45;96644.22;;;17.67;71.44
11444;BME280;5778;47.856;12.154;2023-02-18T12:42:38;96646.34;;;17.88;69.84
11444;BME280;5778;47.856;12.154;2023-02-18T12:45:29;96642.88;;;17.88;65.34
11444;BME280;5778;47.856;12.154;2023-02-18T12:48:31;96630.28;;;18.02;63.54
11444;BME280;5778;47.856;12.154;2023-02-18T12:51:21;96633.56;;;17.99;57.32
11444;BME280;5778;47.856;12.154;2023-02-18T12:54:12;96622.19;;;17.83;57.70
11444;BME280;5778;47.856;12.154;2023-02-18T12:57:04;96615.75;;;18.03;58.07
11444;BME280;5778;47.856;12.154;2023-02-18T13:00:06;96623.81;;;18.03;56.46
11444;BME280;5778;47.856;12.154;2023-02-18T13:02:52;96609.84;;;18.01;57.32
11444;BME280;5778;47.856;12.154;2023-02-18T13:05:31;96599.13;;;18.14;58.68
11444;BME280;5778;47.856;12.154;2023-02-18T13:08:11;96598.84;;;18.16;58.75
11444;BME280;5778;47.856;12.154;2023-02-18T13:11:03;96605.56;;;18.00;58.58
11444;BME280;5778;47.856;12.154;2023-02-18T13:13:36;96606.78;;;18.26;57.85
11444;BME280;5778;47.856;12.154;2023-02-18T13:16:09;96584.97;;;18.09;56.19
11444;BME280;5778;47.856;12.154;2023-02-18T13:18:38;96596.53;;;18.09;58.83
11444;BME280;5778;47.856;12.154;2023-02-18T13:21:08;96594.22;;;18.53;55.89
11444;BME280;5778;47.856;12.154;2023-02-18T13:23:38;96584.00;;;18.69;54.26
11444;BME280;5778;47.856;12.154;2023-02-18T13:26:10;96588.66;;;19.22;52.20
11444;BME280;5778;47.856;12.154;2023-02-18T13:28:43;96589.34;;;19.41;50.20
11444;BME280;5778;47.856;12.154;2023-02-18T13:31:21;96589.84;;;19.03;48.88
11444;BME280;5778;47.856;12.154;2023-02-18T13:33:57;96585.13;;;18.95;48.52
11444;BME280;5778;47.856;12.154;2023-02-18T13:36:36;96589.56;;;19.18;47.60
11444;BME280;5778;47.856;12.154;2023-02-18T13:39:07;96589.75;;;19.08;47.97